Time;durP1;ratioP1;P1;durP2;ratioP2;P2;SDS_P1;SDS_P2;PMS_P1;PMS_P2;Temp;Humidity;BMP_temperature;BMP_pressure;BME280_temperature;BME280_humidity;BME280_pressure;Samples;Min_cycle;Max_cycle;Signal;HPM_P1;HPM_P2
2022/09/23 00:01:06;;;;;;;2.80;1.50;;;11.50;99.90;;;;;;5001463;28;20240;-56
2022/09/23 00:03:37;;;;;;;1.97;1.67;;;11.50;99.90;;;;;;4995282;28;20239;-56
2022/09/23 00:06:09;;;;;;;4.20;1.60;;;11.50;99.90;;;;;;4993062;28;20240;-56
2022/09/23 00:08:39;;;;;;;1.70;1.47;;;11.40;99.90;;;;;;4993379;28;20236;-56
2022/09/23 00:11:10;;;;;;;1.67;1.30;;;11.50;99.90;;;;;;5004275;28;20240;-57
2022/09/23 00:13:39;;;;;;;2.70;1.67;;;11.40;99.90;;;;;;5006025;28;20232;-57
2022/09/23 00:16:10;;;;;;;2.53;1.70;;;11.40;99.90;;;;;;4997270;28;20303;-56
2022/09/23 00:18:38;;;;;;;2.80;1.40;;;11.30;99.90;;;;;;4997157;28;20235;-57
2022/09/23 00:21:08;;;;;;;1.60;1.50;;;11.40;99.90;;;;;;4997230;28;20696;-56
2022/09/23 00:23:40;;;;;;;1.70;1.53;;;11.30;99.90;;;;;;5013747;28;20236;-57
2022/09/23 00:26:10;;;;;;;1.90;1.30;;;11.30;99.90;;;;;;5016681;28;20232;-56
2022/09/23 00:28:38;;;;;;;1.50;1.40;;;11.30;99.90;;;;;;5016139;28;20248;-57
2022/09/23 00:31:07;;;;;;;1.87;1.50;;;11.30;99.90;;;;;;5004726;28;20243;-57
2022/09/23 00:33:36;;;;;;;3.27;1.67;;;11.20;99.90;;;;;;4998091;28;20228;-56
2022/09/23 00:36:06;;;;;;;1.80;1.70;;;11.20;99.90;;;;;;4996749;28;20233;-57
2022/09/23 00:38:34;;;;;;;4.23;1.50;;;11.20;99.90;;;;;;4996492;28;20221;-57
2022/09/23 00:41:04;;;;;;;2.30;1.40;;;11.20;99.90;;;;;;5004527;28;20328;-57
2022/09/23 00:43:40;;;;;;;2.30;1.33;;;11.20;99.90;;;;;;5003733;28;20695;-56
2022/09/23 00:46:10;;;;;;;2.50;1.50;;;11.20;99.90;;;;;;4996453;28;20248;-56
2022/09/23 00:48:40;;;;;;;2.30;1.60;;;11.10;99.90;;;;;;4996548;28;20237;-57
2022/09/23 00:51:12;;;;;;;3.47;1.70;;;11.10;99.90;;;;;;4996552;28;20239;-57
2022/09/23 00:53:41;;;;;;;3.40;1.27;;;11.10;99.90;;;;;;5012957;28;20738;-56
2022/09/23 00:56:11;;;;;;;1.70;1.60;;;11.10;99.90;;;;;;5016232;28;20647;-56
2022/09/23 00:58:41;;;;;;;1.50;1.40;;;11.10;99.90;;;;;;5016174;28;20282;-56
2022/09/23 01:01:10;;;;;;;2.20;1.60;;;11.10;99.90;;;;;;5003966;28;20644;-57
2022/09/23 01:03:38;;;;;;;2.03;1.50;;;11.00;99.90;;;;;;4996615;28;20692;-56
2022/09/23 01:06:07;;;;;;;1.87;1.60;;;11.00;99.90;;;;;;4996357;28;20239;-57
2022/09/23 01:08:36;;;;;;;1.70;1.47;;;11.00;99.90;;;;;;4996102;28;20244;-56
2022/09/23 01:11:15;;;;;;;1.97;1.60;;;11.00;99.90;;;;;;5004769;28;20247;-56
2022/09/23 01:13:52;;;;;;;2.37;1.37;;;10.90;99.90;;;;;;5003010;28;20267;-57
2022/09/23 01:16:27;;;;;;;1.67;1.57;;;10.90;99.90;;;;;;5014669;28;20618;-56
2022/09/23 01:19:02;;;;;;;2.17;1.60;;;10.90;99.90;;;;;;5002315;28;20235;-56
2022/09/23 01:21:44;;;;;;;1.70;1.60;;;10.90;99.90;;;;;;4999139;28;20239;-56
2022/09/23 01:24:45;;;;;;;2.00;1.50;;;10.90;99.90;;;;;;5014999;28;20230;-56
2022/09/23 01:27:41;;;;;;;2.10;1.60;;;10.90;99.90;;;;;;5015474;28;20621;-55
2022/09/23 01:30:17;;;;;;;2.50;1.60;;;10.80;99.90;;;;;;5011723;28;20232;-56
2022/09/23 01:33:04;;;;;;;3.20;1.53;;;10.80;99.90;;;;;;5002060;28;20251;-56
2022/09/23 01:35:47;;;;;;;2.57;1.50;;;10.80;99.90;;;;;;5015070;28;20230;-56
2022/09/23 01:38:24;;;;;;;1.90;1.60;;;10.80;99.90;;;;;;5015188;28;20290;-57
2022/09/23 01:41:02;;;;;;;2.67;1.60;;;10.80;99.90;;;;;;5006937;28;20281;-56
2022/09/23 01:43:38;;;;;;;2.07;1.63;;;10.80;99.90;;;;;;5003056;28;20583;-56
2022/09/23 01:46:11;;;;;;;1.93;1.70;;;10.70;99.90;;;;;;4995853;28;20240;-55
2022/09/23 01:48:46;;;;;;;1.93;1.63;;;10.70;99.90;;;;;;4995480;28;20565;-56
2022/09/23 01:51:20;;;;;;;1.60;1.50;;;10.70;99.90;;;;;;4997026;28;20228;-55
2022/09/23 01:53:51;;;;;;;2.50;1.57;;;10.70;99.90;;;;;;5014998;28;20591;-57
2022/09/23 01:56:23;;;;;;;1.70;1.50;;;10.70;99.90;;;;;;5014927;28;20239;-55
2022/09/23 01:58:58;;;;;;;1.60;1.50;;;10.60;99.90;;;;;;5014972;28;20683;-56
2022/09/23 02:01:35;;;;;;;3.67;1.70;;;10.70;99.90;;;;;;5000858;28;20228;-56
2022/09/23 02:04:09;;;;;;;4.87;1.83;;;10.70;99.90;;;;;;4994647;28;20562;-56
2022/09/23 02:06:41;;;;;;;2.07;1.70;;;10.70;99.90;;;;;;4995117;28;20223;-56
2022/09/23 02:09:14;;;;;;;3.73;1.60;;;10.60;99.90;;;;;;4994997;28;20221;-56
2022/09/23 02:11:47;;;;;;;1.73;1.63;;;10.60;99.90;;;;;;5004195;28;20249;-56
2022/09/23 02:14:19;;;;;;;2.20;1.70;;;10.60;99.90;;;;;;4995553;28;20233;-56
2022/09/23 02:16:50;;;;;;;2.90;1.60;;;10.60;99.90;;;;;;4994931;28;20286;-56
2022/09/23 02:19:26;;;;;;;2.57;1.70;;;10.60;99.90;;;;;;4995083;28;20240;-56
2022/09/23 02:22:01;;;;;;;4.60;1.63;;;10.50;99.90;;;;;;4997632;28;20246;-56
2022/09/23 02:24:32;;;;;;;1.53;1.43;;;10.50;99.90;;;;;;5014108;28;20238;-56
2022/09/23 02:27:12;;;;;;;1.83;1.63;;;10.50;99.90;;;;;;5014455;28;20226;-56
2022/09/23 02:29:48;;;;;;;1.73;1.53;;;10.50;99.90;;;;;;5013869;28;20243;-56
2022/09/23 02:32:21;;;;;;;2.37;2.13;;;10.50;99.90;;;;;;4994568;28;20326;-56
2022/09/23 02:34:57;;;;;;;2.00;1.53;;;10.50;99.90;;;;;;4994712;28;20714;-56
2022/09/23 02:37:36;;;;;;;2.70;1.77;;;10.50;99.90;;;;;;4994362;28;20247;-55
2022/09/23 02:40:11;;;;;;;3.17;1.67;;;10.50;99.90;;;;;;4997283;28;20239;-57
2022/09/23 02:42:49;;;;;;;2.10;1.77;;;10.50;99.90;;;;;;4999225;28;20702;-56
2022/09/23 02:45:18;;;;;;;2.00;1.77;;;10.50;99.90;;;;;;5000339;28;20265;-56
2022/09/23 02:47:51;;;;;;;1.87;1.60;;;10.50;99.90;;;;;;5013961;28;20239;-57
2022/09/23 02:50:21;;;;;;;1.90;1.60;;;10.40;99.90;;;;;;5013908;28;20683;-57
2022/09/23 02:52:49;;;;;;;1.80;1.60;;;10.50;99.90;;;;;;5013148;28;20673;-57
2022/09/23 02:55:22;;;;;;;2.00;1.70;;;10.50;99.90;;;;;;5013768;28;20235;-56
2022/09/23 02:57:52;;;;;;;2.03;1.90;;;10.50;99.90;;;;;;5013788;28;20242;-56
2022/09/23 03:00:20;;;;;;;2.90;2.20;;;10.50;99.90;;;;;;5008373;28;20586;-56
2022/09/23 03:03:11;;;;;;;3.67;1.97;;;10.50;99.90;;;;;;4994134;28;20721;-56
2022/09/23 03:05:48;;;;;;;3.00;1.70;;;10.50;99.90;;;;;;4988339;28;20640;-56
2022/09/23 03:08:41;;;;;;;2.57;1.90;;;10.40;99.90;;;;;;4994166;28;20691;-56
2022/09/23 03:11:12;;;;;;;2.87;1.87;;;10.40;99.90;;;;;;5001730;28;20238;-56
2022/09/23 03:13:55;;;;;;;2.00;1.70;;;10.40;99.90;;;;;;5000823;28;20230;-56
2022/09/23 03:16:32;;;;;;;3.17;1.90;;;10.40;99.90;;;;;;4974997;28;20249;-56
2022/09/23 03:19:17;;;;;;;2.87;1.70;;;10.40;99.90;;;;;;4986323;28;20227;-56
2022/09/23 03:21:53;;;;;;;1.73;1.60;;;10.40;99.90;;;;;;4996023;28;20240;-56
2022/09/23 03:24:23;;;;;;;2.80;2.10;;;10.40;99.90;;;;;;4993951;28;20616;-57
2022/09/23 03:26:53;;;;;;;3.23;2.10;;;10.40;99.90;;;;;;5004986;28;20241;-56
2022/09/23 03:29:23;;;;;;;2.77;2.10;;;10.40;99.90;;;;;;5013088;28;20702;-56
2022/09/23 03:31:52;;;;;;;3.53;1.97;;;10.40;99.90;;;;;;4995457;28;20243;-56
2022/09/23 03:34:25;;;;;;;2.70;1.70;;;10.40;99.90;;;;;;4993784;28;20264;-56
2022/09/23 03:37:00;;;;;;;2.97;1.67;;;10.40;99.90;;;;;;4993457;28;20230;-57
2022/09/23 03:39:35;;;;;;;3.53;1.90;;;10.40;99.90;;;;;;4993410;28;20226;-56
2022/09/23 03:42:15;;;;;;;3.10;1.90;;;10.40;99.90;;;;;;5001391;28;20223;-56
2022/09/23 03:44:44;;;;;;;2.63;2.30;;;10.40;99.90;;;;;;5001305;28;20313;-56
2022/09/23 03:47:13;;;;;;;3.20;2.00;;;10.40;99.90;;;;;;4993933;28;20603;-56
2022/09/23 03:49:44;;;;;;;3.07;2.20;;;10.30;99.90;;;;;;4994792;28;20680;-56
2022/09/23 03:52:14;;;;;;;2.80;1.97;;;10.30;99.90;;;;;;5013307;28;20228;-56
2022/09/23 03:54:42;;;;;;;3.53;2.17;;;10.40;99.90;;;;;;5011524;28;20234;-55
2022/09/23 03:57:11;;;;;;;2.67;2.00;;;10.40;99.90;;;;;;4994364;28;20223;-56
2022/09/23 03:59:39;;;;;;;2.00;1.80;;;10.30;99.90;;;;;;5013112;28;20238;-56
2022/09/23 04:02:08;;;;;;;2.73;2.00;;;10.40;99.90;;;;;;5005230;28;20238;-56
2022/09/23 04:04:39;;;;;;;2.43;2.17;;;10.30;99.90;;;;;;4993105;28;20238;-56
2022/09/23 04:07:07;;;;;;;1.70;1.60;;;10.30;99.90;;;;;;4993248;28;20273;-55
2022/09/23 04:09:37;;;;;;;3.23;2.10;;;10.30;99.90;;;;;;4995948;28;20282;-56
2022/09/23 04:12:05;;;;;;;2.03;1.80;;;10.30;99.90;;;;;;5001434;28;20246;-56
2022/09/23 04:14:34;;;;;;;4.23;2.27;;;10.30;99.90;;;;;;5007280;28;20234;-56
2022/09/23 04:17:02;;;;;;;3.27;2.10;;;10.30;99.90;;;;;;5012115;28;20238;-56
2022/09/23 04:19:30;;;;;;;2.13;1.93;;;10.30;99.90;;;;;;5012594;28;20794;-56
2022/09/23 04:21:58;;;;;;;2.50;2.00;;;10.30;99.90;;;;;;5013003;28;20225;-56
2022/09/23 04:24:27;;;;;;;2.97;2.00;;;10.30;99.90;;;;;;5009222;28;20356;-55
2022/09/23 04:26:56;;;;;;;3.20;2.00;;;10.30;99.90;;;;;;4993313;28;20691;-56
2022/09/23 04:29:25;;;;;;;2.33;1.70;;;10.30;99.90;;;;;;4992958;28;20603;-55
2022/09/23 04:31:54;;;;;;;2.97;2.10;;;10.30;99.90;;;;;;4992839;28;20254;-56
2022/09/23 04:34:22;;;;;;;4.03;2.33;;;10.30;99.90;;;;;;4993447;28;20296;-56
2022/09/23 04:36:50;;;;;;;3.57;2.10;;;10.30;99.90;;;;;;4993505;28;20235;-56
2022/09/23 04:39:18;;;;;;;3.67;2.20;;;10.30;99.90;;;;;;4993017;28;20242;-56
2022/09/23 04:41:46;;;;;;;3.00;2.37;;;10.30;99.90;;;;;;5000958;28;20236;-56
2022/09/23 04:44:16;;;;;;;2.50;2.10;;;10.30;99.90;;;;;;5001202;28;20235;-56
2022/09/23 04:46:46;;;;;;;2.20;2.00;;;10.30;99.90;;;;;;4992631;28;20706;-55
2022/09/23 04:49:14;;;;;;;2.10;1.87;;;10.20;99.90;;;;;;4993253;28;20230;-55
2022/09/23 04:51:43;;;;;;;3.10;2.23;;;10.20;99.90;;;;;;5011827;28;20690;-56
2022/09/23 04:54:13;;;;;;;3.10;2.30;;;10.20;99.90;;;;;;4999766;28;20235;-56
2022/09/23 04:56:41;;;;;;;6.47;2.40;;;10.20;99.90;;;;;;4998709;28;20231;-56
2022/09/23 04:59:10;;;;;;;2.47;1.93;;;10.20;99.90;;;;;;4989025;28;20235;-56
2022/09/23 05:01:40;;;;;;;4.07;2.50;;;10.20;99.90;;;;;;4995867;28;20258;-56
2022/09/23 05:04:12;;;;;;;4.30;2.60;;;10.20;99.90;;;;;;4996748;28;20235;-56
2022/09/23 05:06:44;;;;;;;4.33;2.30;;;10.20;99.90;;;;;;5012058;28;20262;-57
2022/09/23 05:09:15;;;;;;;3.13;2.23;;;10.20;99.90;;;;;;5013001;28;20315;-56
2022/09/23 05:11:44;;;;;;;4.77;2.50;;;10.20;99.90;;;;;;5007325;28;20241;-56
2022/09/23 05:14:12;;;;;;;2.87;2.57;;;10.20;99.90;;;;;;5007295;28;20559;-55
2022/09/23 05:16:41;;;;;;;5.20;2.37;;;10.20;99.90;;;;;;5014470;28;20221;-56
2022/09/23 05:19:12;;;;;;;5.00;2.60;;;10.20;99.90;;;;;;5010932;28;20626;-56
2022/09/23 05:21:40;;;;;;;3.50;2.87;;;10.20;99.90;;;;;;4996610;28;20290;-56
2022/09/23 05:24:08;;;;;;;4.53;2.30;;;10.20;99.90;;;;;;5013132;28;20223;-56
2022/09/23 05:26:37;;;;;;;3.10;2.43;;;10.20;99.90;;;;;;5003959;28;20228;-56
2022/09/23 05:29:05;;;;;;;2.60;2.40;;;10.20;99.90;;;;;;4995608;28;20703;-56
2022/09/23 05:31:33;;;;;;;4.07;2.47;;;10.20;99.90;;;;;;4995419;28;20599;-56
2022/09/23 05:34:04;;;;;;;3.77;2.80;;;10.20;99.90;;;;;;5003788;28;20229;-57
2022/09/23 05:36:34;;;;;;;3.90;2.40;;;10.20;99.90;;;;;;5015607;28;20238;-56
2022/09/23 05:39:06;;;;;;;2.50;2.30;;;10.20;99.90;;;;;;5013764;28;20283;-57
2022/09/23 05:41:35;;;;;;;3.00;2.63;;;10.20;99.90;;;;;;5003433;28;20326;-56
2022/09/23 05:44:04;;;;;;;3.03;2.40;;;10.20;99.90;;;;;;5003586;28;20242;-57
2022/09/23 05:46:32;;;;;;;4.27;2.30;;;10.20;99.90;;;;;;4995379;28;20238;-56
2022/09/23 05:49:02;;;;;;;3.50;2.40;;;10.20;99.90;;;;;;5006151;28;20231;-57
2022/09/23 05:51:33;;;;;;;4.87;2.27;;;10.20;99.90;;;;;;5003209;28;20270;-56
2022/09/23 05:54:02;;;;;;;3.80;2.37;;;10.20;99.90;;;;;;4995692;28;20614;-56
2022/09/23 05:56:32;;;;;;;2.73;2.47;;;10.20;99.90;;;;;;4995274;28;20298;-57
2022/09/23 05:59:01;;;;;;;3.53;2.20;;;10.20;99.90;;;;;;4996765;28;20788;-56
2022/09/23 06:01:32;;;;;;;3.50;2.43;;;10.20;99.90;;;;;;4994351;28;20232;-56
2022/09/23 06:04:04;;;;;;;2.80;2.20;;;10.30;99.90;;;;;;4995363;28;20286;-57
2022/09/23 06:06:34;;;;;;;3.23;2.20;;;10.20;99.90;;;;;;4994662;28;20235;-56
2022/09/23 06:09:03;;;;;;;3.87;2.47;;;10.30;99.90;;;;;;4994810;28;20226;-57
2022/09/23 06:11:33;;;;;;;4.90;2.33;;;10.30;99.90;;;;;;5000901;28;20579;-56
2022/09/23 06:14:01;;;;;;;3.67;2.50;;;10.30;99.90;;;;;;5002736;28;20282;-56
2022/09/23 06:16:32;;;;;;;3.13;2.20;;;10.30;99.90;;;;;;5006217;28;20589;-56
2022/09/23 06:19:04;;;;;;;2.47;2.20;;;10.30;99.90;;;;;;4995738;28;20339;-57
2022/09/23 06:21:35;;;;;;;3.00;2.43;;;10.30;99.90;;;;;;4994682;28;20223;-56
2022/09/23 06:24:04;;;;;;;3.30;2.30;;;10.30;99.90;;;;;;4995351;28;20583;-56
2022/09/23 06:26:33;;;;;;;2.67;2.30;;;10.30;99.90;;;;;;4994847;28;20591;-56
2022/09/23 06:29:03;;;;;;;3.73;2.47;;;10.30;99.90;;;;;;4994641;28;20242;-56
2022/09/23 06:31:31;;;;;;;3.93;2.10;;;10.30;99.90;;;;;;4994136;28;20242;-57
2022/09/23 06:33:59;;;;;;;2.87;2.40;;;10.40;99.90;;;;;;4994615;28;20229;-56
2022/09/23 06:36:41;;;;;;;3.07;2.53;;;10.40;99.90;;;;;;5007236;28;20630;-56
2022/09/23 06:39:13;;;;;;;6.00;2.63;;;10.50;99.90;;;;;;5011176;28;20243;-56
2022/09/23 06:41:41;;;;;;;3.43;2.40;;;10.60;99.90;;;;;;5002229;28;20237;-56
2022/09/23 06:44:12;;;;;;;4.90;2.50;;;10.70;99.90;;;;;;4994808;28;20246;-56
2022/09/23 06:46:40;;;;;;;3.13;2.53;;;10.80;99.90;;;;;;4994151;28;20223;-57
2022/09/23 06:49:10;;;;;;;4.83;2.90;;;10.90;99.90;;;;;;4994466;28;20620;-56
2022/09/23 06:51:39;;;;;;;2.83;2.47;;;10.90;99.90;;;;;;4994129;28;20563;-57
2022/09/23 06:54:09;;;;;;;4.47;2.80;;;11.00;99.90;;;;;;4994203;28;20692;-56
2022/09/23 06:56:38;;;;;;;2.83;2.60;;;11.20;99.90;;;;;;4995644;28;20232;-57
2022/09/23 06:59:09;;;;;;;4.03;2.67;;;11.40;99.90;;;;;;5013376;28;20290;-56
2022/09/23 07:01:37;;;;;;;3.70;2.40;;;11.50;99.90;;;;;;5013458;28;20719;-57
2022/09/23 07:04:06;;;;;;;3.47;2.47;;;11.70;99.90;;;;;;5014029;28;20323;-57
2022/09/23 07:06:35;;;;;;;4.13;2.20;;;12.00;99.90;;;;;;5013809;28;20231;-57
2022/09/23 07:09:04;;;;;;;2.90;2.23;;;12.20;99.90;;;;;;5012300;28;20215;-57
2022/09/23 07:11:33;;;;;;;3.63;2.30;;;12.40;99.90;;;;;;5001616;28;20231;-57
2022/09/23 07:14:01;;;;;;;3.70;2.30;;;12.60;99.90;;;;;;5002105;28;20232;-57
2022/09/23 07:16:30;;;;;;;2.70;2.40;;;12.80;99.90;;;;;;4993700;28;20243;-57
2022/09/23 07:18:58;;;;;;;3.13;2.33;;;13.10;99.90;;;;;;4993587;28;20604;-57
2022/09/23 07:21:26;;;;;;;3.43;2.37;;;13.30;99.90;;;;;;5002570;28;20286;-57
2022/09/23 07:23:56;;;;;;;2.87;2.30;;;13.50;99.90;;;;;;4994240;28;20239;-57
2022/09/23 07:26:25;;;;;;;2.70;2.20;;;13.70;99.90;;;;;;4994009;28;20263;-57
2022/09/23 07:29:03;;;;;;;3.53;2.30;;;13.80;99.90;;;;;;4994061;28;20257;-58
2022/09/23 07:31:32;;;;;;;2.67;2.00;;;13.70;99.90;;;;;;4998046;28;20239;-57
2022/09/23 07:34:08;;;;;;;2.77;2.23;;;13.60;99.90;;;;;;4994037;28;20692;-57
2022/09/23 07:36:39;;;;;;;4.37;2.27;;;13.60;99.90;;;;;;4993764;28;20596;-57
2022/09/23 07:39:08;;;;;;;2.40;2.20;;;13.60;99.90;;;;;;4993378;28;20233;-57
2022/09/23 07:41:36;;;;;;;3.57;2.10;;;13.60;99.90;;;;;;5001728;28;20268;-57
2022/09/23 07:44:07;;;;;;;2.77;2.03;;;13.60;99.90;;;;;;5003919;28;20232;-56
2022/09/23 07:46:36;;;;;;;3.70;2.20;;;13.70;99.90;;;;;;5001799;28;20348;-57
2022/09/23 07:49:05;;;;;;;2.27;2.07;;;13.70;99.90;;;;;;4993702;28;20317;-57
2022/09/23 07:51:35;;;;;;;2.83;2.40;;;13.80;99.90;;;;;;4993394;28;20227;-57
2022/09/23 07:54:06;;;;;;;2.73;2.03;;;13.90;99.90;;;;;;4993380;28;20228;-57
2022/09/23 07:56:35;;;;;;;3.50;2.10;;;14.00;99.90;;;;;;4993771;28;20237;-57
2022/09/23 07:59:03;;;;;;;3.10;1.80;;;14.20;99.90;;;;;;4993578;28;20328;-57
2022/09/23 08:01:34;;;;;;;2.10;1.90;;;14.40;99.90;;;;;;4993129;28;20241;-57
2022/09/23 08:04:05;;;;;;;2.57;1.93;;;14.60;99.90;;;;;;4993591;28;20233;-57
2022/09/23 08:06:33;;;;;;;2.97;2.00;;;14.80;99.90;;;;;;4994971;28;20229;-57
2022/09/23 08:09:01;;;;;;;3.57;2.30;;;15.10;99.90;;;;;;5011355;28;20248;-57
2022/09/23 08:11:30;;;;;;;3.07;2.10;;;15.40;99.90;;;;;;5001248;28;20230;-56
2022/09/23 08:13:58;;;;;;;3.20;2.13;;;15.70;99.90;;;;;;5001467;28;20324;-57
2022/09/23 08:16:26;;;;;;;2.57;1.90;;;15.80;99.90;;;;;;4993726;28;20238;-57
2022/09/23 08:18:55;;;;;;;3.40;2.03;;;16.00;99.90;;;;;;4996802;28;20265;-58
2022/09/23 08:21:24;;;;;;;2.83;1.70;;;16.10;99.90;;;;;;4998880;28;20586;-57
2022/09/23 08:23:52;;;;;;;2.23;2.03;;;16.20;99.90;;;;;;4993196;28;20222;-57
2022/09/23 08:26:20;;;;;;;2.23;2.00;;;16.20;99.90;;;;;;4993399;28;20303;-58
2022/09/23 08:28:53;;;;;;;2.47;2.13;;;16.40;99.90;;;;;;4992900;28;20249;-58
2022/09/23 08:31:22;;;;;;;2.13;1.80;;;16.60;99.90;;;;;;4994478;28;20237;-58
2022/09/23 08:33:55;;;;;;;3.47;1.70;;;16.90;99.90;;;;;;4996841;28;20244;-58
2022/09/23 08:36:24;;;;;;;2.10;1.70;;;16.80;99.90;;;;;;4997155;28;20237;-58
2022/09/23 08:38:52;;;;;;;5.30;1.83;;;16.90;99.90;;;;;;4997156;28;20229;-57
2022/09/23 08:41:27;;;;;;;2.57;1.97;;;16.80;99.90;;;;;;4998518;28;20254;-58
2022/09/23 08:43:59;;;;;;;2.57;1.87;;;17.00;99.90;;;;;;5011746;28;20275;-58
2022/09/23 08:46:33;;;;;;;3.27;2.03;;;17.00;99.90;;;;;;4999777;28;20232;-58
2022/09/23 08:49:06;;;;;;;2.57;2.00;;;17.30;99.90;;;;;;4997801;28;20229;-58
2022/09/23 08:51:39;;;;;;;2.70;1.97;;;17.60;99.90;;;;;;5005149;28;20214;-58
2022/09/23 08:54:10;;;;;;;3.33;1.73;;;17.50;99.90;;;;;;5001629;28;20275;-58
2022/09/23 08:56:38;;;;;;;2.03;1.57;;;17.60;99.90;;;;;;5011143;28;20232;-59
2022/09/23 08:59:11;;;;;;;2.77;2.00;;;17.80;99.90;;;;;;5004272;28;20225;-58
2022/09/23 09:01:42;;;;;;;3.97;1.87;;;17.90;99.90;;;;;;5006630;28;20229;-58
2022/09/23 09:04:18;;;;;;;4.10;1.90;;;18.10;99.90;;;;;;4998709;28;20231;-57
2022/09/23 09:06:50;;;;;;;2.90;1.87;;;18.20;99.90;;;;;;5003978;28;20704;-58
2022/09/23 09:09:28;;;;;;;3.97;2.10;;;18.50;99.90;;;;;;5003818;28;20457;-57
2022/09/23 09:12:03;;;;;;;4.37;2.00;;;18.50;99.90;;;;;;5003768;28;20701;-58
2022/09/23 09:14:37;;;;;;;3.17;2.00;;;18.70;99.90;;;;;;5005962;28;20241;-58
2022/09/23 09:17:09;;;;;;;3.80;1.60;;;19.00;99.90;;;;;;4998671;28;20233;-58
2022/09/23 09:19:52;;;;;;;3.90;1.60;;;19.30;99.90;;;;;;4995993;28;20246;-58
2022/09/23 09:22:27;;;;;;;2.60;1.70;;;19.50;99.90;;;;;;4995893;28;20229;-58
2022/09/23 09:25:00;;;;;;;2.83;1.70;;;19.50;99.90;;;;;;4996175;28;20228;-58
2022/09/23 09:27:29;;;;;;;4.57;1.63;;;19.70;99.90;;;;;;4996117;28;20229;-58
2022/09/23 09:30:00;;;;;;;2.33;1.53;;;19.80;99.90;;;;;;4942442;28;20285;-58
2022/09/23 09:32:42;;;;;;;2.50;1.80;;;19.80;99.90;;;;;;4937325;28;20253;-58
2022/09/23 09:35:24;;;;;;;3.00;1.93;;;19.90;99.90;;;;;;4952072;29;20268;-58
2022/09/23 09:37:52;;;;;;;3.47;1.70;;;19.80;99.90;;;;;;4956976;28;20230;-58
2022/09/23 09:40:20;;;;;;;3.27;2.00;;;19.90;99.90;;;;;;4961025;28;20280;-58
2022/09/23 09:42:50;;;;;;;2.73;1.83;;;20.10;99.90;;;;;;4959680;28;20797;-58
2022/09/23 09:45:27;;;;;;;2.80;1.80;;;20.30;99.90;;;;;;4975654;28;20229;-59
2022/09/23 09:48:02;;;;;;;2.37;1.73;;;20.20;99.90;;;;;;4976297;28;20266;-58
2022/09/23 09:50:49;;;;;;;2.20;1.50;;;20.00;99.90;;;;;;4976110;28;20240;-58
2022/09/23 09:53:25;;;;;;;2.50;1.90;;;19.80;99.90;;;;;;4976751;28;20284;-59
2022/09/23 09:56:03;;;;;;;3.30;1.67;;;19.70;99.90;;;;;;4957519;28;20243;-58
2022/09/23 09:58:42;;;;;;;3.00;1.90;;;19.70;99.90;;;;;;4956829;28;20234;-59
2022/09/23 10:01:19;;;;;;;4.17;2.00;;;19.70;99.90;;;;;;4955920;28;20234;-58
2022/09/23 10:03:50;;;;;;;2.80;1.97;;;19.60;99.90;;;;;;4962220;28;20574;-58
2022/09/23 10:06:26;;;;;;;5.47;2.00;;;19.50;99.90;;;;;;4961615;28;20229;-58
2022/09/23 10:09:16;;;;;;;2.87;2.17;;;19.40;99.90;;;;;;4962898;28;20241;-58
2022/09/23 10:12:03;;;;;;;3.97;1.83;;;19.30;99.90;;;;;;4953310;28;20246;-58
2022/09/23 10:14:31;;;;;;;2.60;1.70;;;19.50;99.90;;;;;;4969772;28;20752;-58
2022/09/23 10:17:05;;;;;;;2.87;1.80;;;19.60;99.90;;;;;;4975574;28;20236;-58
2022/09/23 10:19:36;;;;;;;2.93;2.03;;;19.70;99.90;;;;;;4975206;28;20292;-58
2022/09/23 10:22:20;;;;;;;4.10;1.73;;;19.70;99.90;;;;;;4975613;28;20242;-58
2022/09/23 10:24:52;;;;;;;3.73;1.87;;;19.80;99.90;;;;;;4967552;28;20234;-59
2022/09/23 10:27:30;;;;;;;2.17;1.80;;;19.60;99.90;;;;;;4963018;28;20573;-59
2022/09/23 10:30:00;;;;;;;3.40;1.77;;;19.70;99.90;;;;;;4983386;28;20226;-58
2022/09/23 10:32:31;;;;;;;3.63;1.97;;;19.90;99.90;;;;;;4982229;28;20237;-58
2022/09/23 10:35:04;;;;;;;2.73;1.93;;;19.90;99.90;;;;;;4985381;28;20278;-59
2022/09/23 10:37:40;;;;;;;2.60;1.57;;;19.90;99.90;;;;;;4979762;28;20225;-58
2022/09/23 10:46:45;;;;;;;3.10;1.70;;;20.30;99.90;;;;;;4955585;28;20219;-58
2022/09/23 10:49:44;;;;;;;2.10;1.70;;;20.10;99.90;;;;;;4970060;28;20233;-58
2022/09/23 10:52:30;;;;;;;4.93;1.90;;;20.10;99.90;;;;;;4949518;28;20246;-58
2022/09/23 10:55:16;;;;;;;2.60;1.70;;;20.00;99.90;;;;;;4975269;28;20583;-58
2022/09/23 10:57:56;;;;;;;3.67;1.80;;;20.00;99.90;;;;;;4984619;28;20681;-59
2022/09/23 11:00:39;;;;;;;4.00;1.63;;;19.80;99.90;;;;;;4993726;28;20231;-58
2022/09/23 11:03:39;;;;;;;3.33;1.60;;;19.90;99.90;;;;;;4980052;28;20232;-59
2022/09/23 11:06:17;;;;;;;2.83;2.00;;;19.80;99.90;;;;;;4976305;28;20807;-58
2022/09/23 11:09:16;;;;;;;1.80;1.70;;;19.50;99.90;;;;;;4978207;28;20240;-59
2022/09/23 11:12:02;;;;;;;3.73;1.50;;;19.30;99.90;;;;;;4978325;28;20240;-59
2022/09/23 11:14:52;;;;;;;6.67;2.10;;;19.40;99.90;;;;;;4980088;28;20288;-59
2022/09/23 11:17:44;;;;;;;3.77;1.63;;;19.50;99.90;;;;;;4981951;28;20237;-59
2022/09/23 11:20:34;;;;;;;1.97;1.60;;;19.60;99.90;;;;;;4979636;28;20230;-59
2022/09/23 11:23:26;;;;;;;2.13;1.73;;;19.60;99.90;;;;;;4974286;28;20233;-58
2022/09/23 11:26:02;;;;;;;2.17;1.70;;;19.60;99.90;;;;;;4965588;28;20233;-59
2022/09/23 11:29:10;;;;;;;3.20;1.63;;;19.70;99.90;;;;;;4982290;28;20240;-59
2022/09/23 11:31:46;;;;;;;1.77;1.30;;;19.60;99.90;;;;;;4990734;28;20239;-58
2022/09/23 11:34:30;;;;;;;3.53;1.47;;;19.60;99.90;;;;;;4993914;28;20721;-58
2022/09/23 11:37:03;;;;;;;1.57;1.27;;;19.70;99.90;;;;;;4993456;28;20751;-59
2022/09/23 11:39:37;;;;;;;1.67;1.40;;;19.80;99.90;;;;;;4995914;28;20225;-58
2022/09/23 11:42:08;;;;;;;2.97;1.63;;;19.80;99.90;;;;;;5006034;28;20245;-60
2022/09/23 11:44:42;;;;;;;2.47;1.40;;;19.70;99.90;;;;;;5001623;28;20248;-59
2022/09/23 11:47:18;;;;;;;2.37;1.40;;;19.80;99.90;;;;;;4993374;28;20233;-58
2022/09/23 11:49:53;;;;;;;2.93;1.47;;;19.80;99.90;;;;;;4987437;28;20589;-59
2022/09/23 11:52:25;;;;;;;1.47;1.30;;;19.70;99.90;;;;;;4987955;28;20324;-59
2022/09/23 11:54:57;;;;;;;2.67;1.53;;;19.80;99.90;;;;;;4985414;28;20249;-58
2022/09/23 11:57:31;;;;;;;4.63;1.50;;;19.80;99.90;;;;;;4987463;28;20240;-59
2022/09/23 12:00:18;;;;;;;2.70;1.60;;;19.70;99.90;;;;;;4985622;28;20232;-59
2022/09/23 12:03:05;;;;;;;3.07;1.60;;;19.80;99.90;;;;;;4986960;28;20237;-58
2022/09/23 12:05:39;;;;;;;1.70;1.40;;;19.80;99.90;;;;;;4988231;28;20247;-58
2022/09/23 12:08:16;;;;;;;1.40;1.30;;;19.70;99.90;;;;;;4991802;28;20247;-58
2022/09/23 12:10:53;;;;;;;4.03;1.47;;;19.80;99.90;;;;;;4990861;28;20293;-58
2022/09/23 12:13:29;;;;;;;2.37;1.50;;;19.90;99.90;;;;;;4991116;28;20232;-58
2022/09/23 12:16:13;;;;;;;2.63;1.20;;;20.00;99.90;;;;;;4990581;28;20731;-58
2022/09/23 12:18:55;;;;;;;1.77;1.30;;;19.90;99.90;;;;;;4990352;28;20224;-58
2022/09/23 12:21:58;;;;;;;5.07;1.40;;;19.90;99.90;;;;;;4989891;28;21011;-58
2022/09/23 12:24:45;;;;;;;3.03;1.50;;;19.90;99.90;;;;;;4990868;28;20243;-59
2022/09/23 12:27:23;;;;;;;3.13;1.60;;;19.80;99.90;;;;;;4989923;28;20302;-58
2022/09/23 12:29:56;;;;;;;2.87;1.57;;;19.80;99.90;;;;;;4989892;28;20256;-57
2022/09/23 12:32:26;;;;;;;2.97;1.40;;;19.70;99.90;;;;;;4990095;28;20230;-58
2022/09/23 12:34:55;;;;;;;2.43;1.30;;;19.60;99.90;;;;;;4988851;28;20275;-56
2022/09/23 12:37:27;;;;;;;1.90;1.40;;;19.70;99.90;;;;;;4990130;28;20240;-58
2022/09/23 12:40:01;;;;;;;2.17;1.27;;;19.50;99.90;;;;;;4992598;28;20241;-57
2022/09/23 12:42:29;;;;;;;3.90;1.93;;;19.60;99.90;;;;;;5002011;28;20282;-57
2022/09/23 12:45:18;;;;;;;3.23;2.20;;;19.80;99.90;;;;;;5000607;28;20790;-58
2022/09/23 12:47:47;;;;;;;1.60;1.47;;;19.70;99.90;;;;;;5002645;28;20236;-58
2022/09/23 12:50:47;;;;;;;2.60;1.60;;;19.60;99.90;;;;;;5000917;28;20240;-58
2022/09/23 12:53:53;;;;;;;3.53;1.53;;;19.60;99.90;;;;;;4989691;28;20638;-57
2022/09/23 12:56:23;;;;;;;2.10;1.57;;;19.50;99.90;;;;;;4988676;28;20593;-58
2022/09/23 12:59:20;;;;;;;2.03;1.30;;;19.50;99.90;;;;;;4992859;28;20241;-58
2022/09/23 13:01:48;;;;;;;3.30;1.47;;;19.50;99.90;;;;;;4999376;28;20237;-58
2022/09/23 13:07:32;;;;;;;1.27;1.10;;;19.70;99.90;;;;;;5002106;28;20244;-59
2022/09/23 13:10:08;;;;;;;2.30;1.37;;;19.70;99.90;;;;;;5000352;28;20307;-58
2022/09/23 13:12:39;;;;;;;3.73;1.63;;;19.80;99.90;;;;;;4988986;28;20704;-58
2022/09/23 13:15:17;;;;;;;3.23;1.50;;;19.90;99.90;;;;;;4987920;28;20228;-58
2022/09/23 13:17:45;;;;;;;3.33;1.60;;;19.80;99.90;;;;;;4989702;28;20709;-57
2022/09/23 13:20:37;;;;;;;2.20;1.40;;;19.90;99.90;;;;;;4989877;28;20246;-58
2022/09/23 13:23:22;;;;;;;3.53;1.67;;;19.80;99.90;;;;;;5001943;28;20357;-57
2022/09/23 13:25:52;;;;;;;1.70;1.60;;;19.70;99.90;;;;;;4998392;28;20283;-59
2022/09/23 13:28:30;;;;;;;2.20;1.20;;;19.60;99.90;;;;;;5001030;28;20240;-58
2022/09/23 13:31:02;;;;;;;3.03;1.30;;;19.50;99.90;;;;;;5000612;28;20252;-57